SCSE/LSC METAR and TAF weather

Enter ICAO airport designator
Station Type Date Time Source
SCSE METAR 2018/12/11 17:00 UTC NOAA

SCSE 111700Z 29013KT CAVOK 20/12 Q1018


Station Type Date Time Source
SCSE Decoded METAR 2018/12/11 17:00 UTC NOAA

La Serena, Chile (SCSE) 29-54S 071-12W
Dec 11, 2018 - 12:00 PM EST / 2018.12.11 1700 UTC
Wind: from the WNW (290 degrees) at 15 MPH (13 KT):0
Visibility: greater than 7 mile(s):0
Temperature: 68 F (20 C)
Dew Point: 53 F (12 C)
Relative Humidity: 59%
Pressure (altimeter): 30.06 in. Hg (1018 hPa)
ob: SCSE 111700Z 29013KT CAVOK 20/12 Q1018
cycle: 17

Station Type Date Time Source
SCSE TAF 2018/12/11 18:03 UTC NOAA

TAF TAF SCSE 111620Z 1118/1218 28012KT CAVOK TX21/1119Z TN13/1211Z
BECMG 1201/1203 29004KT
TEMPO 1206/1212 10004KT FEW005 BKN010
BECMG 1215/1217 28006KT


Example: see airport list